createdAt,value
2019-03-25T00:00:07.476Z,77.00
2019-03-25T00:02:01.136Z,77.00
2019-03-25T00:03:53.268Z,77.50
2019-03-25T00:05:45.265Z,77.70
2019-03-25T00:07:37.548Z,77.20
2019-03-25T00:09:29.433Z,77.60
2019-03-25T00:11:21.749Z,77.10
2019-03-25T00:13:14.180Z,76.70
2019-03-25T00:15:06.416Z,76.70
2019-03-25T00:16:58.584Z,77.00
2019-03-25T00:18:50.771Z,77.30
2019-03-25T00:20:42.952Z,77.00
2019-03-25T00:22:35.123Z,77.00
2019-03-25T00:24:37.994Z,76.90
2019-03-25T00:26:21.107Z,77.40
2019-03-25T00:28:13.909Z,77.10
2019-03-25T00:30:07.083Z,77.20
2019-03-25T00:31:59.270Z,77.50
2019-03-25T00:33:51.762Z,77.20
2019-03-25T00:35:43.925Z,77.30
2019-03-25T00:37:36.064Z,77.30
2019-03-25T00:39:28.544Z,77.10
2019-03-25T00:41:20.525Z,77.10
2019-03-25T00:43:12.695Z,77.70
2019-03-25T00:45:06.844Z,77.50
2019-03-25T00:46:59.308Z,77.80
2019-03-25T00:48:51.684Z,76.90
2019-03-25T00:50:43.906Z,76.80
2019-03-25T00:52:36.156Z,76.90
2019-03-25T00:54:28.419Z,78.10
2019-03-25T00:56:20.704Z,76.90
2019-03-25T00:58:13.302Z,77.10
2019-03-25T01:00:07.077Z,76.70
2019-03-25T01:01:59.105Z,77.00
2019-03-25T01:03:51.356Z,77.20
2019-03-25T01:05:43.555Z,77.30
2019-03-25T01:07:35.767Z,77.30
2019-03-25T01:09:27.939Z,77.20
2019-03-25T01:11:20.016Z,77.40
2019-03-25T01:13:12.121Z,77.50
2019-03-25T01:15:05.802Z,77.90
2019-03-25T01:16:59.354Z,77.20
2019-03-25T01:18:51.503Z,77.30
2019-03-25T01:20:43.865Z,76.90
2019-03-25T01:22:36.186Z,77.10
2019-03-25T01:24:28.095Z,77.00
2019-03-25T01:26:20.346Z,77.20
2019-03-25T01:28:12.735Z,76.90
2019-03-25T01:30:06.517Z,77.30
2019-03-25T01:31:58.726Z,76.90
2019-03-25T01:33:50.921Z,77.00
2019-03-25T01:35:42.760Z,77.20
2019-03-25T01:37:35.007Z,77.00
2019-03-25T01:39:26.909Z,77.10
2019-03-25T01:41:19.444Z,77.90
2019-03-25T01:43:11.629Z,76.90
2019-03-25T01:45:05.738Z,76.90
2019-03-25T01:46:58.178Z,76.80
2019-03-25T01:48:50.512Z,76.30
2019-03-25T01:50:42.720Z,76.50
2019-03-25T01:52:34.937Z,75.90
2019-03-25T01:54:27.081Z,76.50
2019-03-25T01:56:19.363Z,76.70
2019-03-25T01:58:11.553Z,76.80
2019-03-25T02:00:04.597Z,76.70
2019-03-25T02:01:57.014Z,76.40
2019-03-25T02:03:49.217Z,76.80
2019-03-25T02:05:41.648Z,76.40
2019-03-25T02:07:33.522Z,76.70
2019-03-25T02:09:25.604Z,77.30
2019-03-25T02:11:17.918Z,76.60
2019-03-25T02:13:10.045Z,76.80
2019-03-25T02:15:02.169Z,77.10
2019-03-25T02:16:54.012Z,77.30
2019-03-25T02:18:45.950Z,77.90
2019-03-25T02:20:38.264Z,77.00
2019-03-25T02:22:30.415Z,76.30
2019-03-25T02:24:22.667Z,76.20
2019-03-25T02:26:14.844Z,76.10
2019-03-25T02:28:07.328Z,75.30
2019-03-25T02:29:59.871Z,76.90
2019-03-25T02:31:52.060Z,75.30
2019-03-25T02:33:44.099Z,75.80
2019-03-25T02:35:35.997Z,76.10
2019-03-25T02:37:28.242Z,76.20
2019-03-25T02:39:20.432Z,76.40
2019-03-25T02:41:12.943Z,76.70
2019-03-25T02:43:04.930Z,77.40
2019-03-25T02:44:57.030Z,77.30
2019-03-25T02:46:50.661Z,77.80
2019-03-25T02:48:42.838Z,78.00
2019-03-25T02:50:35.224Z,78.30
2019-03-25T02:52:27.424Z,78.30
2019-03-25T02:54:19.860Z,79.00
2019-03-25T02:56:11.685Z,79.60
2019-03-25T02:58:04.027Z,80.40
2019-03-25T02:59:56.636Z,80.40
2019-03-25T03:01:48.924Z,80.30
2019-03-25T03:03:41.076Z,80.60
2019-03-25T03:05:33.252Z,81.00
2019-03-25T03:07:26.441Z,80.90
2019-03-25T03:09:18.702Z,81.20
2019-03-25T03:11:11.134Z,80.90
2019-03-25T03:13:03.574Z,80.90
2019-03-25T03:14:55.726Z,81.00
2019-03-25T03:16:47.873Z,80.80
2019-03-25T03:18:39.888Z,81.40
2019-03-25T03:20:32.286Z,81.50
2019-03-25T03:22:24.487Z,81.60
2019-03-25T03:24:16.449Z,82.40
2019-03-25T03:26:08.641Z,82.90
2019-03-25T03:28:00.814Z,82.90
2019-03-25T03:29:53.072Z,83.10
2019-03-25T03:31:45.441Z,83.10
2019-03-25T03:33:37.833Z,83.00
2019-03-25T03:35:30.037Z,83.70
2019-03-25T03:37:22.408Z,83.50
2019-03-25T03:39:14.664Z,82.70
2019-03-25T03:41:06.906Z,82.60
2019-03-25T03:42:59.011Z,82.00
2019-03-25T03:44:51.097Z,82.50
2019-03-25T03:46:43.264Z,82.50
2019-03-25T03:48:35.684Z,82.60
2019-03-25T03:50:27.822Z,83.40
2019-03-25T03:52:21.473Z,83.70
2019-03-25T03:54:13.795Z,84.10
2019-03-25T03:56:12.755Z,84.20
2019-03-25T03:57:59.620Z,83.70
2019-03-25T03:59:51.664Z,83.90
2019-03-25T04:01:43.882Z,83.60
2019-03-25T04:03:36.083Z,83.70
2019-03-25T04:05:28.220Z,83.60
2019-03-25T04:07:20.339Z,83.50
2019-03-25T04:09:12.744Z,83.20
2019-03-25T04:11:05.140Z,83.70
2019-03-25T04:12:57.142Z,83.70
2019-03-25T04:14:49.522Z,83.10
2019-03-25T04:16:41.737Z,83.20
2019-03-25T04:18:34.069Z,84.10
2019-03-25T04:20:26.621Z,84.30
2019-03-25T04:22:20.001Z,84.40
2019-03-25T04:24:12.238Z,83.60
2019-03-25T04:26:04.653Z,83.70
2019-03-25T04:27:57.161Z,83.60
2019-03-25T04:29:49.132Z,83.70
2019-03-25T04:31:41.585Z,83.40
2019-03-25T04:33:33.852Z,83.50
2019-03-25T04:35:26.069Z,83.50
2019-03-25T04:37:18.544Z,84.00
2019-03-25T04:39:10.661Z,83.90
2019-03-25T04:41:03.370Z,84.10
2019-03-25T04:42:55.565Z,83.70
2019-03-25T04:44:48.012Z,83.80
2019-03-25T04:46:40.175Z,83.60
2019-03-25T04:48:32.534Z,84.10
2019-03-25T04:50:24.681Z,84.60
2019-03-25T04:52:16.604Z,85.00
2019-03-25T04:54:08.708Z,84.50
2019-03-25T04:56:00.833Z,85.50
2019-03-25T04:57:53.270Z,85.40
2019-03-25T04:59:45.863Z,85.10
2019-03-25T05:01:38.191Z,84.80
2019-03-25T05:03:31.644Z,85.00
2019-03-25T05:05:23.833Z,85.30
2019-03-25T05:07:16.057Z,85.20
2019-03-25T05:09:08.195Z,85.70
2019-03-25T05:11:00.583Z,85.50
2019-03-25T05:12:52.443Z,86.20
2019-03-25T05:14:44.630Z,86.30
2019-03-25T05:16:37.061Z,85.80
2019-03-25T05:18:29.548Z,85.30
2019-03-25T05:20:21.697Z,85.50
2019-03-25T05:22:13.924Z,85.60
2019-03-25T05:24:06.110Z,85.70
2019-03-25T05:25:58.396Z,86.00
2019-03-25T05:27:50.740Z,86.80
2019-03-25T05:29:43.098Z,86.60
2019-03-25T05:31:35.164Z,86.90
2019-03-25T05:33:27.473Z,86.50
2019-03-25T05:35:20.224Z,86.40
2019-03-25T05:37:12.063Z,86.30
2019-03-25T05:39:06.044Z,86.80
2019-03-25T05:40:58.531Z,86.40
2019-03-25T05:42:50.776Z,86.80
2019-03-25T05:44:43.040Z,87.00
2019-03-25T05:46:35.620Z,86.40
2019-03-25T05:48:27.997Z,86.00
2019-03-25T05:50:20.115Z,85.60
2019-03-25T05:52:13.441Z,85.50
2019-03-25T05:54:05.648Z,85.20
2019-03-25T05:55:58.177Z,85.00
2019-03-25T05:57:50.458Z,84.70
2019-03-25T05:59:42.928Z,84.80
2019-03-25T06:01:34.948Z,85.30
2019-03-25T06:03:27.162Z,84.80
2019-03-25T06:05:19.055Z,83.40
2019-03-25T06:07:11.124Z,83.20
2019-03-25T06:09:04.595Z,83.20
2019-03-25T06:10:56.983Z,83.60
2019-03-25T06:12:48.932Z,83.20
2019-03-25T06:14:41.072Z,83.50
2019-03-25T06:16:33.368Z,81.80
2019-03-25T06:18:25.656Z,81.80
2019-03-25T06:20:17.912Z,81.20
2019-03-25T06:22:09.836Z,80.40
2019-03-25T06:24:03.600Z,80.80
2019-03-25T06:25:55.855Z,80.70
2019-03-25T06:27:49.515Z,79.50
2019-03-25T06:29:41.676Z,78.00
2019-03-25T06:31:34.020Z,77.60
2019-03-25T06:33:26.484Z,76.90
2019-03-25T06:35:18.759Z,77.20
2019-03-25T06:37:10.990Z,76.50
2019-03-25T06:39:04.738Z,74.90
2019-03-25T06:40:57.221Z,74.70
2019-03-25T06:42:49.456Z,75.00
2019-03-25T06:44:41.893Z,73.70
2019-03-25T06:46:34.512Z,74.10
2019-03-25T06:48:26.694Z,73.30
2019-03-25T06:50:18.978Z,73.40
2019-03-25T06:52:11.236Z,72.20
2019-03-25T06:54:03.562Z,72.90
2019-03-25T06:55:55.700Z,73.70
2019-03-25T06:57:47.816Z,73.00
2019-03-25T06:59:40.219Z,72.60
2019-03-25T07:01:32.296Z,72.70
2019-03-25T07:03:24.306Z,71.70
2019-03-25T07:05:16.283Z,71.20
2019-03-25T07:07:08.523Z,71.90
2019-03-25T07:09:00.707Z,71.70
2019-03-25T07:10:52.590Z,71.20
2019-03-25T07:12:44.739Z,70.70
2019-03-25T07:14:36.987Z,70.00
2019-03-25T07:16:29.199Z,68.60
2019-03-25T07:18:21.164Z,72.60
2019-03-25T07:20:13.687Z,66.60
2019-03-25T07:22:05.759Z,66.30
2019-03-25T07:23:57.688Z,66.20
2019-03-25T07:25:50.097Z,64.10
2019-03-25T07:27:42.140Z,63.30
2019-03-25T07:29:34.093Z,64.00
2019-03-25T07:31:26.305Z,63.90
2019-03-25T07:33:18.219Z,64.30
2019-03-25T07:35:10.711Z,64.00
2019-03-25T07:37:02.774Z,66.10
2019-03-25T07:38:54.938Z,67.80
2019-03-25T07:40:47.667Z,63.60
2019-03-25T07:42:40.045Z,63.00
2019-03-25T07:44:32.283Z,63.10
2019-03-25T07:46:24.619Z,60.50
2019-03-25T07:48:17.068Z,60.60
2019-03-25T07:50:09.620Z,61.00
2019-03-25T07:52:01.991Z,60.40
2019-03-25T07:53:54.343Z,60.40
2019-03-25T07:55:46.964Z,59.60
2019-03-25T07:57:47.776Z,60.30
2019-03-25T07:59:33.111Z,59.90
2019-03-25T08:01:25.482Z,60.80
2019-03-25T08:03:17.890Z,60.00
2019-03-25T08:05:10.850Z,58.60
2019-03-25T08:07:03.376Z,58.20
2019-03-25T08:09:03.289Z,59.00
2019-03-25T08:10:49.429Z,59.20
2019-03-25T08:12:41.722Z,59.10
2019-03-25T08:14:34.098Z,57.80
2019-03-25T08:16:26.484Z,57.80
2019-03-25T08:18:18.731Z,58.10
2019-03-25T08:20:11.025Z,57.80
2019-03-25T08:22:03.521Z,56.60
2019-03-25T08:23:56.059Z,56.80
2019-03-25T08:25:48.367Z,55.90
2019-03-25T08:27:40.312Z,56.60
2019-03-25T08:29:32.189Z,57.10
2019-03-25T08:31:24.312Z,55.90
2019-03-25T08:33:16.944Z,55.30
2019-03-25T08:35:09.655Z,55.70
2019-03-25T08:37:04.477Z,56.30
2019-03-25T08:38:56.925Z,57.50
2019-03-25T08:40:49.462Z,58.10
2019-03-25T08:42:41.714Z,58.60
2019-03-25T08:44:34.003Z,58.40
2019-03-25T08:46:25.912Z,58.30
2019-03-25T08:48:18.687Z,58.40
2019-03-25T08:50:11.320Z,57.50
2019-03-25T08:52:04.074Z,57.20
2019-03-25T08:53:56.607Z,55.90
2019-03-25T08:55:48.442Z,55.50
2019-03-25T08:57:40.324Z,56.00
2019-03-25T08:59:32.992Z,56.90
2019-03-25T09:01:24.895Z,55.80
2019-03-25T09:03:17.035Z,55.80
2019-03-25T09:05:09.244Z,55.90
2019-03-25T09:07:01.380Z,55.70
2019-03-25T09:08:53.339Z,55.90
2019-03-25T09:10:45.720Z,56.00
2019-03-25T09:12:38.059Z,56.00
2019-03-25T09:14:30.183Z,56.40
2019-03-25T09:16:22.392Z,57.60
2019-03-25T09:18:14.656Z,57.20
2019-03-25T09:20:08.280Z,56.50
2019-03-25T09:22:00.679Z,57.10
2019-03-25T09:23:53.911Z,56.50
2019-03-25T09:25:46.212Z,55.90
2019-03-25T09:27:38.286Z,56.00
2019-03-25T09:29:30.504Z,56.10
2019-03-25T09:31:22.716Z,56.30
2019-03-25T09:33:14.885Z,56.20
2019-03-25T09:35:07.466Z,55.80
2019-03-25T09:36:59.396Z,54.50
2019-03-25T09:38:51.697Z,54.40
2019-03-25T09:40:44.136Z,54.10
2019-03-25T09:42:36.840Z,54.90
2019-03-25T09:44:28.945Z,54.80
2019-03-25T09:46:21.458Z,55.00
2019-03-25T09:48:13.723Z,54.00
2019-03-25T09:50:06.740Z,52.90
2019-03-25T09:51:59.301Z,53.40
2019-03-25T09:53:51.547Z,53.90
2019-03-25T09:55:43.743Z,52.50
2019-03-25T09:57:36.264Z,52.70
2019-03-25T09:59:53.372Z,53.20
2019-03-25T10:01:45.771Z,53.90
2019-03-25T10:03:38.237Z,53.30
2019-03-25T10:05:30.685Z,51.70
2019-03-25T10:07:23.124Z,50.80
2019-03-25T10:09:15.632Z,50.00
2019-03-25T10:11:07.497Z,49.50
2019-03-25T10:12:59.728Z,48.30
2019-03-25T10:14:51.938Z,47.70
2019-03-25T10:16:44.312Z,46.10
2019-03-25T10:18:36.171Z,46.00
2019-03-25T10:20:28.076Z,46.10
2019-03-25T10:22:20.421Z,46.20
2019-03-25T10:24:12.615Z,46.80
2019-03-25T10:26:04.936Z,47.30
2019-03-25T10:27:57.038Z,46.40
2019-03-25T10:29:49.297Z,46.60
2019-03-25T10:31:41.428Z,45.40
2019-03-25T10:33:33.689Z,43.90
2019-03-25T10:35:25.944Z,44.80
2019-03-25T10:37:19.326Z,44.60
2019-03-25T10:39:11.639Z,44.10
2019-03-25T10:41:03.730Z,43.30
2019-03-25T10:42:55.999Z,44.30
2019-03-25T10:44:48.364Z,43.20
2019-03-25T10:46:40.648Z,44.20
2019-03-25T10:48:32.865Z,45.50
2019-03-25T10:50:25.762Z,44.40
2019-03-25T10:52:18.263Z,43.00
2019-03-25T10:54:10.233Z,43.50
2019-03-25T10:56:02.572Z,42.60
2019-03-25T10:57:54.988Z,41.50
2019-03-25T10:59:47.521Z,41.30
2019-03-25T11:01:39.700Z,42.50
2019-03-25T11:03:32.118Z,42.90
2019-03-25T11:05:24.593Z,42.50
2019-03-25T11:07:16.828Z,42.60
2019-03-25T11:09:09.318Z,42.00
2019-03-25T11:11:01.651Z,42.20
2019-03-25T11:12:54.244Z,41.70
2019-03-25T11:14:46.386Z,41.20
2019-03-25T11:16:38.860Z,41.50
2019-03-25T11:18:30.840Z,41.30
2019-03-25T11:20:22.892Z,41.40
2019-03-25T11:22:15.047Z,42.10
2019-03-25T11:24:08.616Z,41.40
2019-03-25T11:26:00.563Z,40.40
2019-03-25T11:27:54.465Z,40.70
2019-03-25T11:29:46.239Z,40.40
2019-03-25T11:31:38.778Z,40.60
2019-03-25T11:33:30.884Z,40.30
2019-03-25T11:35:23.341Z,40.50
2019-03-25T11:37:15.772Z,40.20
2019-03-25T11:39:07.979Z,38.90
2019-03-25T11:41:00.317Z,38.40
2019-03-25T11:42:52.331Z,40.20
2019-03-25T11:44:44.668Z,38.70
2019-03-25T11:46:36.630Z,38.90
2019-03-25T11:48:28.817Z,37.90
2019-03-25T11:50:20.759Z,38.20
2019-03-25T11:52:15.060Z,38.30
2019-03-25T11:54:07.331Z,38.00
2019-03-25T11:56:00.485Z,38.10
2019-03-25T11:57:52.660Z,39.00
2019-03-25T11:59:45.045Z,38.90
2019-03-25T12:01:37.539Z,39.10
2019-03-25T12:03:29.805Z,39.30
2019-03-25T12:05:21.913Z,39.90
2019-03-25T12:07:14.355Z,39.60
2019-03-25T12:09:27.172Z,40.00
2019-03-25T12:11:19.232Z,40.20
2019-03-25T12:13:12.764Z,41.60
2019-03-25T12:15:06.354Z,42.60
2019-03-25T12:16:58.923Z,44.00
2019-03-25T12:18:51.328Z,43.50
2019-03-25T12:20:43.407Z,43.80
2019-03-25T12:22:35.711Z,43.90
2019-03-25T12:24:27.859Z,43.30
2019-03-25T12:26:20.260Z,43.40
2019-03-25T12:28:12.377Z,43.40
2019-03-25T12:30:05.702Z,41.20
2019-03-25T12:31:59.062Z,41.10
2019-03-25T12:33:51.352Z,39.60
2019-03-25T12:35:43.420Z,38.60
2019-03-25T12:37:35.595Z,37.70
2019-03-25T12:39:27.829Z,37.00
2019-03-25T12:41:20.095Z,37.90
2019-03-25T12:43:12.872Z,38.60
2019-03-25T12:45:06.240Z,39.70
2019-03-25T12:46:58.523Z,40.90
2019-03-25T12:48:50.663Z,41.40
2019-03-25T12:50:42.768Z,42.20
2019-03-25T12:52:34.675Z,42.40
2019-03-25T12:54:26.847Z,43.60
2019-03-25T12:56:18.800Z,43.70
2019-03-25T12:58:11.972Z,43.40
2019-03-25T13:00:06.096Z,43.40
2019-03-25T13:01:58.313Z,43.80
2019-03-25T13:03:50.513Z,44.70
2019-03-25T13:05:42.468Z,44.50
2019-03-25T13:07:35.071Z,44.70
2019-03-25T13:09:27.201Z,46.10
2019-03-25T13:11:19.333Z,46.40
2019-03-25T13:13:11.764Z,47.10
2019-03-25T13:15:05.829Z,48.20
2019-03-25T13:16:58.004Z,50.40
2019-03-25T13:18:50.445Z,53.20
2019-03-25T13:20:42.311Z,55.80
2019-03-25T13:22:34.387Z,57.60
2019-03-25T13:24:27.864Z,59.00
2019-03-25T13:26:20.085Z,60.50
2019-03-25T13:28:12.291Z,60.30
2019-03-25T13:30:08.259Z,59.40
2019-03-25T13:32:00.356Z,58.00
2019-03-25T13:33:52.850Z,56.30
2019-03-25T13:35:44.748Z,55.10
2019-03-25T13:37:36.995Z,55.70
2019-03-25T13:39:29.107Z,53.40
2019-03-25T13:41:21.059Z,55.00
2019-03-25T13:43:16.318Z,55.10
2019-03-25T13:45:08.862Z,53.50
2019-03-25T13:47:01.385Z,50.70
2019-03-25T13:48:55.132Z,50.50
2019-03-25T13:50:47.802Z,51.90
2019-03-25T13:52:40.164Z,55.30
2019-03-25T13:54:32.679Z,57.90
2019-03-25T13:56:25.026Z,56.00
2019-03-25T13:58:17.254Z,56.90
2019-03-25T14:00:10.180Z,54.20
2019-03-25T14:02:02.316Z,54.20
2019-03-25T14:03:54.793Z,51.50
2019-03-25T14:05:47.101Z,49.90
2019-03-25T14:07:39.408Z,50.60
2019-03-25T14:09:31.592Z,51.50
2019-03-25T14:11:23.753Z,50.60
2019-03-25T14:13:15.616Z,49.30
2019-03-25T14:15:07.873Z,47.80
2019-03-25T14:17:00.545Z,47.80
2019-03-25T14:18:52.818Z,49.60
2019-03-25T14:20:44.932Z,50.30
2019-03-25T14:22:37.145Z,49.30
2019-03-25T14:24:29.261Z,49.50
2019-03-25T14:26:21.519Z,49.40
2019-03-25T14:28:14.051Z,49.80
2019-03-25T14:30:14.473Z,48.70
2019-03-25T14:32:01.923Z,53.60
2019-03-25T14:33:54.294Z,59.00
2019-03-25T14:35:46.755Z,63.60
2019-03-25T14:37:39.013Z,68.10
2019-03-25T14:39:31.171Z,72.40
2019-03-25T14:41:23.285Z,73.90
2019-03-25T14:43:15.506Z,74.80
2019-03-25T14:45:08.335Z,74.60
2019-03-25T14:47:00.865Z,77.00
2019-03-25T14:48:52.982Z,77.10
2019-03-25T14:50:45.397Z,78.40
2019-03-25T14:52:37.583Z,78.10
2019-03-25T14:54:30.951Z,76.10
2019-03-25T14:56:23.395Z,77.90
2019-03-25T14:58:15.702Z,77.10
2019-03-25T15:00:10.106Z,76.80
2019-03-25T15:02:02.373Z,74.30
2019-03-25T15:03:55.047Z,77.40
2019-03-25T15:05:47.626Z,77.60
2019-03-25T15:07:40.132Z,77.00
2019-03-25T15:09:32.307Z,77.40
2019-03-25T15:11:24.959Z,76.10
2019-03-25T15:13:17.141Z,76.00
2019-03-25T15:15:10.580Z,76.10
2019-03-25T15:17:02.785Z,77.50
2019-03-25T15:18:55.245Z,75.60
2019-03-25T15:20:47.495Z,74.40
2019-03-25T15:22:39.802Z,73.50
2019-03-25T15:24:32.237Z,73.40
2019-03-25T15:26:24.217Z,72.20
2019-03-25T15:28:16.608Z,71.60
2019-03-25T15:30:09.543Z,67.20
2019-03-25T15:32:02.062Z,64.80
2019-03-25T15:33:54.454Z,64.60
2019-03-25T15:35:46.877Z,62.00
2019-03-25T15:37:39.343Z,61.20
2019-03-25T15:39:31.871Z,60.00
2019-03-25T15:41:24.266Z,59.60
2019-03-25T15:43:16.458Z,60.10
2019-03-25T15:45:09.365Z,62.90
2019-03-25T15:47:01.618Z,64.10
2019-03-25T15:48:53.797Z,63.00
2019-03-25T15:50:46.259Z,62.00
2019-03-25T15:52:38.723Z,61.20
2019-03-25T15:54:30.907Z,60.20
2019-03-25T15:56:23.040Z,59.50
2019-03-25T15:58:25.649Z,60.40
2019-03-25T16:00:18.116Z,59.70
2019-03-25T16:02:10.362Z,59.90
2019-03-25T16:04:03.565Z,61.10
2019-03-25T16:05:55.635Z,61.90
2019-03-25T16:07:48.084Z,62.40
2019-03-25T16:09:40.621Z,64.10
2019-03-25T16:11:32.833Z,66.10
2019-03-25T16:13:25.447Z,67.30
2019-03-25T16:15:37.568Z,68.90
2019-03-25T16:17:29.396Z,69.60
2019-03-25T16:19:21.211Z,69.90
2019-03-25T16:21:13.568Z,70.60
2019-03-25T16:23:05.929Z,70.50
2019-03-25T16:24:57.827Z,69.90
2019-03-25T16:26:50.036Z,70.60
2019-03-25T16:28:42.116Z,70.70
2019-03-25T16:30:34.668Z,71.20
2019-03-25T16:32:26.846Z,71.50
2019-03-25T16:34:19.213Z,71.80
2019-03-25T16:36:11.554Z,72.20
2019-03-25T16:38:03.742Z,74.30
2019-03-25T16:39:56.250Z,81.50
2019-03-25T16:41:49.031Z,85.30
2019-03-25T16:43:41.577Z,87.00
2019-03-25T16:45:33.781Z,90.60
2019-03-25T16:47:26.225Z,91.50
2019-03-25T16:49:18.293Z,91.80
2019-03-25T16:51:10.706Z,90.40
2019-03-25T16:53:03.080Z,91.00
2019-03-25T16:54:54.941Z,90.80
2019-03-25T16:56:47.217Z,90.00
2019-03-25T16:58:39.893Z,89.90
2019-03-25T17:00:38.233Z,89.00
2019-03-25T17:02:30.729Z,90.10
2019-03-25T17:04:22.623Z,90.30
2019-03-25T17:06:15.229Z,89.60
2019-03-25T17:08:08.269Z,87.40
2019-03-25T17:10:00.334Z,86.10
2019-03-25T17:11:52.446Z,85.50
2019-03-25T17:13:44.655Z,87.30
2019-03-25T17:15:37.017Z,88.60
2019-03-25T17:17:29.350Z,85.40
2019-03-25T17:19:21.581Z,85.10
2019-03-25T17:21:13.820Z,84.80
2019-03-25T17:23:07.830Z,82.90
2019-03-25T17:25:01.211Z,82.30
2019-03-25T17:26:53.354Z,83.10
2019-03-25T17:28:45.473Z,83.20
2019-03-25T17:30:38.020Z,85.20
2019-03-25T17:32:29.926Z,83.30
2019-03-25T17:34:22.535Z,81.50
2019-03-25T17:36:15.151Z,81.00
2019-03-25T17:38:07.448Z,81.10
2019-03-25T17:39:59.385Z,82.20
2019-03-25T17:41:51.575Z,82.20
2019-03-25T17:43:43.983Z,80.30
2019-03-25T17:45:36.384Z,79.40
2019-03-25T17:47:28.869Z,80.50
2019-03-25T17:49:21.402Z,79.70
2019-03-25T17:51:14.177Z,80.20
2019-03-25T17:53:06.569Z,79.40
2019-03-25T17:54:58.648Z,78.80
2019-03-25T17:56:50.988Z,78.90
2019-03-25T17:58:43.852Z,79.00
2019-03-25T18:00:52.772Z,79.90
2019-03-25T18:02:45.256Z,79.60
2019-03-25T18:04:37.588Z,80.40
2019-03-25T18:06:29.777Z,80.20
2019-03-25T18:08:21.735Z,80.30
2019-03-25T18:10:14.344Z,78.90
2019-03-25T18:12:06.632Z,78.90
2019-03-25T18:13:59.020Z,78.50
2019-03-25T18:15:51.218Z,79.10
2019-03-25T18:17:43.755Z,79.40
2019-03-25T18:19:35.974Z,78.70
2019-03-25T18:21:28.360Z,79.60
2019-03-25T18:23:20.785Z,79.80
2019-03-25T18:25:13.007Z,79.90
2019-03-25T18:27:05.213Z,79.20
2019-03-25T18:28:57.349Z,80.90
2019-03-25T18:30:49.496Z,82.90
2019-03-25T18:32:42.328Z,84.90
2019-03-25T18:34:34.307Z,87.30
2019-03-25T18:36:27.912Z,89.60
2019-03-25T18:38:20.397Z,90.50
2019-03-25T18:40:12.576Z,91.20
2019-03-25T18:42:04.955Z,91.90
2019-03-25T18:43:57.261Z,93.10
2019-03-25T18:45:49.841Z,94.10
2019-03-25T18:47:41.888Z,93.80
2019-03-25T18:49:33.979Z,94.20
2019-03-25T18:51:26.115Z,95.30
2019-03-25T18:53:18.671Z,94.10
2019-03-25T18:55:11.273Z,93.70
2019-03-25T18:57:03.740Z,94.80
2019-03-25T18:58:55.799Z,94.40
2019-03-25T19:00:47.895Z,94.10
2019-03-25T19:02:40.288Z,94.40
2019-03-25T19:04:32.404Z,93.80
2019-03-25T19:06:24.623Z,94.20
2019-03-25T19:08:18.341Z,94.30
2019-03-25T19:10:14.479Z,94.00
2019-03-25T19:12:06.089Z,93.80
2019-03-25T19:13:58.688Z,94.10
2019-03-25T19:15:51.534Z,94.10
2019-03-25T19:17:43.918Z,94.50
2019-03-25T19:19:36.648Z,93.90
2019-03-25T19:21:29.208Z,93.70
2019-03-25T19:23:22.288Z,94.30
2019-03-25T19:25:16.109Z,93.70
2019-03-25T19:27:10.706Z,93.40
2019-03-25T19:29:04.290Z,94.00
2019-03-25T19:30:57.745Z,93.50
2019-03-25T19:32:52.570Z,92.90
2019-03-25T19:34:46.399Z,93.30
2019-03-25T19:36:40.232Z,93.10
2019-03-25T19:38:35.082Z,92.50
2019-03-25T19:40:28.303Z,93.30
2019-03-25T19:42:22.107Z,92.80
2019-03-25T19:44:15.747Z,93.30
2019-03-25T19:46:09.269Z,93.40
2019-03-25T19:48:03.171Z,93.80
2019-03-25T19:49:56.750Z,93.40
2019-03-25T19:51:50.574Z,93.60
2019-03-25T19:53:44.125Z,93.70
2019-03-25T19:55:37.873Z,93.50
2019-03-25T19:57:31.830Z,93.20
2019-03-25T19:59:26.013Z,92.50
2019-03-25T20:01:19.916Z,93.20
2019-03-25T20:03:13.937Z,92.80
2019-03-25T20:05:08.092Z,92.00
2019-03-25T20:07:01.738Z,92.70
2019-03-25T20:08:55.504Z,92.30
2019-03-25T20:10:49.721Z,91.50
2019-03-25T20:12:44.883Z,91.90
2019-03-25T20:14:38.232Z,91.70
2019-03-25T20:16:31.880Z,92.10
2019-03-25T20:18:25.614Z,91.70
2019-03-25T20:20:19.098Z,91.30
2019-03-25T20:22:12.856Z,91.50
2019-03-25T20:24:06.586Z,91.00
2019-03-25T20:26:00.385Z,91.30
2019-03-25T20:27:54.242Z,90.60
2019-03-25T20:29:48.008Z,90.00
2019-03-25T20:31:42.143Z,90.40
2019-03-25T20:33:36.537Z,89.50
2019-03-25T20:35:30.213Z,90.30
2019-03-25T20:37:23.724Z,90.30
2019-03-25T20:39:17.510Z,91.20
2019-03-25T20:41:11.433Z,91.00
2019-03-25T20:43:05.380Z,90.40
2019-03-25T20:44:59.471Z,91.00
2019-03-25T20:46:52.933Z,90.80
2019-03-25T20:48:46.616Z,90.70
2019-03-25T20:50:41.112Z,90.50
2019-03-25T20:52:35.137Z,90.60
2019-03-25T20:54:28.817Z,91.00
2019-03-25T20:56:23.546Z,91.00
2019-03-25T20:58:17.343Z,90.90
2019-03-25T21:00:12.308Z,91.10
2019-03-25T21:02:06.662Z,90.70
2019-03-25T21:04:00.299Z,90.50
2019-03-25T21:05:53.967Z,90.70
2019-03-25T21:07:48.428Z,91.20
2019-03-25T21:09:42.768Z,90.70
2019-03-25T21:11:36.367Z,90.70
2019-03-25T21:13:29.816Z,90.70
2019-03-25T21:15:23.524Z,90.70
2019-03-25T21:17:17.265Z,90.80
2019-03-25T21:19:10.866Z,90.90
2019-03-25T21:21:07.240Z,91.10
2019-03-25T21:23:01.135Z,91.00
2019-03-25T21:24:54.431Z,91.00
2019-03-25T21:26:47.297Z,90.80
2019-03-25T21:28:39.604Z,91.00
2019-03-25T21:30:32.315Z,91.30
2019-03-25T21:32:24.833Z,91.40
2019-03-25T21:34:17.274Z,91.20
2019-03-25T21:36:09.896Z,91.00
2019-03-25T21:38:02.736Z,91.00
2019-03-25T21:39:55.012Z,90.50
2019-03-25T21:41:47.205Z,90.50
2019-03-25T21:43:39.346Z,90.50
2019-03-25T21:45:32.079Z,90.70
2019-03-25T21:47:24.217Z,90.40
2019-03-25T21:49:16.408Z,90.20
2019-03-25T21:51:10.388Z,90.40
2019-03-25T21:53:02.670Z,90.80
2019-03-25T21:54:55.288Z,90.10
2019-03-25T21:56:47.526Z,90.30
2019-03-25T21:58:40.228Z,90.00
2019-03-25T22:00:32.919Z,90.00
2019-03-25T22:02:25.292Z,90.40
2019-03-25T22:04:17.358Z,90.20
2019-03-25T22:06:09.590Z,90.20
2019-03-25T22:08:02.160Z,90.20
2019-03-25T22:09:54.516Z,90.30
2019-03-25T22:11:46.685Z,90.40
2019-03-25T22:13:38.887Z,90.50
2019-03-25T22:15:31.167Z,90.50
2019-03-25T22:17:23.374Z,90.30
2019-03-25T22:19:15.365Z,90.30
2019-03-25T22:21:07.501Z,90.60
2019-03-25T22:22:59.617Z,90.40
2019-03-25T22:24:51.770Z,88.90
2019-03-25T22:26:43.953Z,89.90
2019-03-25T22:28:35.850Z,89.70
2019-03-25T22:30:28.863Z,89.10
2019-03-25T22:32:21.424Z,88.90
2019-03-25T22:34:13.386Z,88.70
2019-03-25T22:36:05.762Z,88.70
2019-03-25T22:37:57.947Z,89.10
2019-03-25T22:39:50.039Z,89.70
2019-03-25T22:41:42.249Z,89.20
2019-03-25T22:43:34.737Z,89.60
2019-03-25T22:45:27.975Z,88.80
2019-03-25T22:47:20.048Z,89.20
2019-03-25T22:49:12.484Z,89.10
2019-03-25T22:51:04.702Z,89.10
2019-03-25T22:52:57.720Z,88.70
2019-03-25T22:54:50.251Z,88.80
2019-03-25T22:56:42.365Z,89.10
2019-03-25T22:58:34.563Z,88.80
2019-03-25T23:00:33.833Z,89.10
2019-03-25T23:02:26.748Z,88.60
2019-03-25T23:04:18.759Z,88.70
2019-03-25T23:06:11.210Z,88.40
2019-03-25T23:08:03.384Z,89.10
2019-03-25T23:09:55.447Z,88.70
2019-03-25T23:11:47.305Z,88.20
2019-03-25T23:13:39.232Z,88.70
2019-03-25T23:15:31.612Z,89.80
2019-03-25T23:17:23.707Z,89.70
2019-03-25T23:19:15.812Z,89.70
2019-03-25T23:21:07.787Z,88.50
2019-03-25T23:22:59.828Z,88.60
2019-03-25T23:24:52.295Z,89.40
2019-03-25T23:26:44.689Z,90.00
2019-03-25T23:28:37.032Z,89.40
2019-03-25T23:30:29.275Z,90.00
2019-03-25T23:32:21.152Z,90.00
2019-03-25T23:34:13.078Z,90.00
2019-03-25T23:36:05.161Z,90.10
2019-03-25T23:37:57.587Z,89.70
2019-03-25T23:39:49.680Z,90.40
2019-03-25T23:41:42.271Z,90.00
2019-03-25T23:43:34.636Z,90.00
2019-03-25T23:45:27.032Z,88.80
2019-03-25T23:47:19.205Z,88.80
2019-03-25T23:49:11.304Z,89.70
2019-03-25T23:51:03.687Z,89.10
2019-03-25T23:52:55.630Z,88.60
2019-03-25T23:54:48.170Z,88.40
2019-03-25T23:56:41.486Z,88.50
2019-03-25T23:58:33.669Z,89.40
